createdAt,value
2022-08-03T00:01:39.343Z,2.60
2022-08-03T00:04:08.832Z,2.97
2022-08-03T00:06:37.602Z,4.47
2022-08-03T00:09:06.529Z,3.25
2022-08-03T00:11:36.776Z,2.80
2022-08-03T00:14:05.621Z,3.15
2022-08-03T00:16:33.827Z,3.13
2022-08-03T00:19:02.528Z,2.97
2022-08-03T00:21:31.003Z,3.55
2022-08-03T00:23:59.002Z,4.10
2022-08-03T00:26:27.125Z,3.67
2022-08-03T00:28:56.655Z,3.83
2022-08-03T00:31:35.246Z,3.35
2022-08-03T00:34:12.962Z,3.20
2022-08-03T00:36:41.638Z,3.58
2022-08-03T00:39:10.209Z,3.38
2022-08-03T00:41:38.306Z,3.95
2022-08-03T00:44:07.751Z,3.85
2022-08-03T00:46:35.906Z,3.55
2022-08-03T00:49:04.186Z,4.88
2022-08-03T00:51:34.850Z,3.75
2022-08-03T00:54:03.264Z,3.70
2022-08-03T00:56:31.448Z,2.58
2022-08-03T00:59:00.506Z,4.20
2022-08-03T01:01:32.386Z,4.65
2022-08-03T01:04:01.271Z,3.13
2022-08-03T01:06:42.092Z,4.32
2022-08-03T01:09:18.757Z,4.18
2022-08-03T01:11:59.946Z,3.63
2022-08-03T01:14:35.291Z,3.85
2022-08-03T01:17:14.090Z,3.80
2022-08-03T01:19:50.662Z,4.03
2022-08-03T01:22:46.104Z,3.33
2022-08-03T01:25:29.865Z,3.40
2022-08-03T01:28:08.951Z,3.38
2022-08-03T01:30:44.733Z,3.47
2022-08-03T01:33:18.658Z,3.75
2022-08-03T01:35:51.578Z,3.65
2022-08-03T01:38:25.049Z,4.00
2022-08-03T01:40:55.407Z,4.85
2022-08-03T01:44:27.983Z,3.53
2022-08-03T01:46:20.631Z,4.50
2022-08-03T01:48:50.679Z,3.65
2022-08-03T01:51:22.027Z,3.88
2022-08-03T01:53:51.315Z,4.72
2022-08-03T01:56:21.331Z,4.43
2022-08-03T01:58:51.759Z,3.47
2022-08-03T02:01:22.801Z,3.70
2022-08-03T02:03:59.821Z,3.28
2022-08-03T02:07:02.885Z,4.38
2022-08-03T02:09:23.299Z,4.28
2022-08-03T02:11:53.032Z,3.28
2022-08-03T02:14:23.357Z,3.17
2022-08-03T02:16:54.034Z,3.80
2022-08-03T02:19:23.370Z,3.40
2022-08-03T02:21:56.829Z,4.75
2022-08-03T02:24:30.398Z,4.40
2022-08-03T02:26:59.791Z,3.83
2022-08-03T02:29:39.142Z,4.75
2022-08-03T02:32:13.602Z,4.32
2022-08-03T02:34:45.002Z,3.67
2022-08-03T02:37:15.948Z,4.47
2022-08-03T02:39:45.687Z,5.70
2022-08-03T02:42:16.579Z,5.35
2022-08-03T02:44:49.654Z,3.75
2022-08-03T02:47:22.003Z,4.32
2022-08-03T02:49:52.684Z,4.07
2022-08-03T02:52:24.290Z,5.13
2022-08-03T02:54:55.900Z,3.35
2022-08-03T02:57:26.585Z,4.53
2022-08-03T02:59:56.362Z,4.22
2022-08-03T03:02:26.705Z,3.90
2022-08-03T03:05:50.559Z,3.80
2022-08-03T03:07:51.501Z,3.88
2022-08-03T03:10:22.462Z,6.90
2022-08-03T03:12:52.485Z,4.15
2022-08-03T03:15:20.813Z,3.60
2022-08-03T03:17:51.410Z,5.57
2022-08-03T03:20:29.826Z,4.22
2022-08-03T03:23:01.003Z,4.60
2022-08-03T03:25:31.886Z,4.03
2022-08-03T03:28:00.820Z,3.90
2022-08-03T03:30:30.106Z,3.88
2022-08-03T03:33:00.741Z,3.47
2022-08-03T03:35:29.577Z,4.13
2022-08-03T03:37:58.308Z,5.05
2022-08-03T03:40:26.500Z,4.75
2022-08-03T03:42:54.826Z,4.45
2022-08-03T03:45:24.496Z,6.00
2022-08-03T03:47:52.788Z,4.38
2022-08-03T03:50:23.874Z,4.32
2022-08-03T03:52:52.327Z,6.57
2022-08-03T03:55:20.297Z,4.65
2022-08-03T03:57:48.439Z,4.68
2022-08-03T04:00:18.962Z,3.65
2022-08-03T04:02:47.476Z,4.95
2022-08-03T04:05:34.450Z,5.05
2022-08-03T04:08:25.099Z,4.38
2022-08-03T04:11:01.539Z,4.88
2022-08-03T04:13:48.466Z,4.40
2022-08-03T04:16:18.885Z,5.40
2022-08-03T04:18:52.173Z,4.63
2022-08-03T04:21:23.548Z,3.63
2022-08-03T04:23:56.226Z,5.65
2022-08-03T04:26:28.834Z,4.38
2022-08-03T04:28:57.518Z,4.32
2022-08-03T04:31:27.145Z,4.65
2022-08-03T04:33:56.531Z,4.05
2022-08-03T04:36:27.477Z,4.85
2022-08-03T04:39:02.373Z,4.15
2022-08-03T04:41:31.644Z,5.13
2022-08-03T04:44:01.806Z,5.00
2022-08-03T04:46:33.228Z,5.22
2022-08-03T04:49:02.005Z,4.80
2022-08-03T04:51:30.888Z,4.53
2022-08-03T04:54:00.361Z,4.53
2022-08-03T04:56:28.786Z,5.18
2022-08-03T04:58:56.926Z,5.35
2022-08-03T05:01:25.106Z,5.47
2022-08-03T05:03:53.093Z,4.85
2022-08-03T05:06:21.088Z,5.53
2022-08-03T05:08:53.618Z,4.82
2022-08-03T05:11:23.188Z,5.47
2022-08-03T05:13:51.211Z,4.60
2022-08-03T05:16:19.305Z,4.25
2022-08-03T05:18:47.395Z,4.65
2022-08-03T05:21:17.470Z,4.05
2022-08-03T05:23:45.879Z,4.45
2022-08-03T05:26:13.984Z,4.35
2022-08-03T05:28:51.399Z,4.88
2022-08-03T05:31:20.285Z,3.63
2022-08-03T05:33:49.119Z,3.53
2022-08-03T05:36:17.542Z,4.60
2022-08-03T05:38:45.775Z,3.92
2022-08-03T05:41:20.298Z,4.80
2022-08-03T05:43:53.707Z,5.88
2022-08-03T05:46:22.333Z,4.00
2022-08-03T05:48:50.870Z,4.20
2022-08-03T05:51:19.090Z,3.95
2022-08-03T05:53:47.216Z,3.75
2022-08-03T05:56:16.723Z,4.70
2022-08-03T05:58:47.354Z,4.60
2022-08-03T06:01:17.909Z,3.65
2022-08-03T06:03:46.744Z,3.92
2022-08-03T06:06:15.400Z,4.78
2022-08-03T06:08:43.991Z,4.38
2022-08-03T06:11:12.390Z,4.65
2022-08-03T06:13:41.830Z,4.07
2022-08-03T06:16:10.348Z,3.97
2022-08-03T06:18:40.486Z,3.45
2022-08-03T06:21:15.302Z,4.22
2022-08-03T06:23:54.227Z,3.63
2022-08-03T06:26:25.340Z,3.05
2022-08-03T06:28:54.518Z,3.42
2022-08-03T06:31:25.974Z,4.70
2022-08-03T06:34:31.426Z,5.13
2022-08-03T06:36:52.385Z,3.58
2022-08-03T06:39:23.531Z,3.10
2022-08-03T06:41:53.506Z,2.83
2022-08-03T06:44:21.978Z,4.47
2022-08-03T06:46:51.184Z,3.70
2022-08-03T06:49:20.589Z,3.63
2022-08-03T06:52:04.415Z,2.65
2022-08-03T06:54:35.919Z,3.15
2022-08-03T06:57:04.646Z,3.38
2022-08-03T07:00:07.695Z,3.55
2022-08-03T07:02:21.094Z,2.15
2022-08-03T07:04:51.007Z,4.00
2022-08-03T07:07:19.316Z,3.20
2022-08-03T07:09:55.660Z,2.63
2022-08-03T07:12:27.515Z,2.83
2022-08-03T07:15:00.311Z,3.65
2022-08-03T07:17:29.755Z,2.95
2022-08-03T07:19:59.475Z,5.22
2022-08-03T07:22:28.410Z,3.72
2022-08-03T07:24:56.757Z,2.30
2022-08-03T07:27:26.951Z,3.53
2022-08-03T07:29:55.304Z,2.83
2022-08-03T07:32:23.440Z,2.25
2022-08-03T07:34:51.543Z,2.40
2022-08-03T07:37:21.187Z,2.47
2022-08-03T07:39:49.415Z,2.83
2022-08-03T07:42:17.856Z,2.15
2022-08-03T07:44:46.488Z,2.63
2022-08-03T07:47:22.478Z,2.67
2022-08-03T07:49:51.262Z,2.88
2022-08-03T07:52:50.255Z,2.75
2022-08-03T07:55:20.832Z,3.30
2022-08-03T07:57:49.376Z,2.97
2022-08-03T08:00:20.375Z,3.08
2022-08-03T08:02:48.524Z,2.35
2022-08-03T08:05:16.577Z,3.67
2022-08-03T08:07:50.990Z,2.60
2022-08-03T08:10:20.357Z,4.20
2022-08-03T08:12:48.552Z,4.00
2022-08-03T08:15:16.811Z,3.85
2022-08-03T08:17:46.586Z,4.38
2022-08-03T08:20:25.183Z,2.25
2022-08-03T08:23:01.424Z,2.55
2022-08-03T08:25:31.487Z,2.85
2022-08-03T08:28:30.484Z,2.83
2022-08-03T08:30:50.894Z,3.45
2022-08-03T08:33:22.958Z,1.95
2022-08-03T08:35:54.986Z,2.33
2022-08-03T08:38:24.684Z,2.90
2022-08-03T08:40:52.908Z,2.40
2022-08-03T08:43:21.047Z,4.57
2022-08-03T08:45:51.367Z,3.03
2022-08-03T08:48:23.599Z,2.88
2022-08-03T08:50:54.967Z,2.20
2022-08-03T08:53:27.655Z,1.80
2022-08-03T08:56:00.291Z,3.90
2022-08-03T08:58:32.730Z,1.48
2022-08-03T09:01:01.393Z,1.40
2022-08-03T09:03:30.812Z,2.65
2022-08-03T09:06:02.145Z,2.35
2022-08-03T09:08:32.821Z,1.90
2022-08-03T09:11:01.179Z,1.75
2022-08-03T09:13:30.517Z,2.35
2022-08-03T09:16:15.971Z,1.55
2022-08-03T09:18:46.715Z,3.72
2022-08-03T09:21:36.255Z,1.83
2022-08-03T09:24:16.559Z,3.35
2022-08-03T09:26:54.265Z,2.10
2022-08-03T09:29:22.871Z,1.20
2022-08-03T09:32:00.232Z,1.75
2022-08-03T09:34:29.037Z,1.77
2022-08-03T09:36:58.357Z,1.83
2022-08-03T09:39:40.683Z,2.05
2022-08-03T09:42:14.651Z,2.85
2022-08-03T09:44:45.164Z,2.00
2022-08-03T09:47:17.019Z,2.28
2022-08-03T09:49:59.004Z,1.85
2022-08-03T09:52:50.235Z,1.55
2022-08-03T09:56:34.515Z,1.80
2022-08-03T09:58:14.450Z,1.40
2022-08-03T10:00:57.649Z,0.80
2022-08-03T10:03:27.492Z,1.67
2022-08-03T10:05:59.568Z,1.60
2022-08-03T10:08:28.671Z,2.35
2022-08-03T10:10:59.854Z,1.88
2022-08-03T10:13:28.803Z,1.40
2022-08-03T10:16:23.118Z,1.30
2022-08-03T10:18:45.430Z,1.80
2022-08-03T10:21:18.331Z,1.98
2022-08-03T10:23:47.758Z,1.23
2022-08-03T10:26:22.461Z,3.00
2022-08-03T10:28:54.102Z,1.50
2022-08-03T10:31:24.987Z,1.67
2022-08-03T10:33:58.176Z,2.25
2022-08-03T10:36:31.501Z,1.83
2022-08-03T10:39:02.030Z,1.97
2022-08-03T10:41:36.223Z,1.80
2022-08-03T10:44:06.987Z,2.58
2022-08-03T10:46:40.337Z,1.45
2022-08-03T10:49:15.773Z,1.85
2022-08-03T10:51:45.708Z,1.55
2022-08-03T10:55:00.473Z,1.95
2022-08-03T10:58:00.493Z,1.50
2022-08-03T11:00:30.336Z,0.77
2022-08-03T11:03:10.267Z,1.92
2022-08-03T11:05:40.998Z,1.92
2022-08-03T11:08:30.696Z,1.55
2022-08-03T11:11:01.671Z,1.50
2022-08-03T11:13:33.924Z,2.28
2022-08-03T11:16:21.951Z,1.80
2022-08-03T11:18:58.488Z,2.40
2022-08-03T11:21:54.259Z,1.40
2022-08-03T11:24:59.824Z,3.40
2022-08-03T11:27:35.097Z,1.43
2022-08-03T11:32:52.903Z,1.55
2022-08-03T11:35:22.355Z,1.40
2022-08-03T11:38:10.342Z,1.20
2022-08-03T11:40:41.494Z,2.15
2022-08-03T11:43:10.986Z,1.00
2022-08-03T11:45:57.053Z,1.50
2022-08-03T11:48:29.298Z,2.08
2022-08-03T11:50:58.364Z,3.00
2022-08-03T11:53:26.532Z,1.35
2022-08-03T11:55:54.758Z,3.63
2022-08-03T11:59:01.427Z,1.77
2022-08-03T12:01:21.189Z,1.25
2022-08-03T12:03:52.007Z,1.25
2022-08-03T12:06:20.798Z,1.10
2022-08-03T12:08:48.864Z,2.00
2022-08-03T12:11:17.531Z,1.33
2022-08-03T12:14:36.672Z,1.17
2022-08-03T12:16:36.663Z,2.35
2022-08-03T12:19:06.704Z,1.33
2022-08-03T12:21:34.973Z,1.63
2022-08-03T12:24:04.502Z,1.33
2022-08-03T12:26:44.655Z,1.58
2022-08-03T12:29:25.914Z,7.32
2022-08-03T12:31:56.402Z,2.72
2022-08-03T12:34:25.313Z,2.50
2022-08-03T12:37:01.064Z,1.52
2022-08-03T12:39:31.353Z,2.28
2022-08-03T12:42:00.717Z,1.23
2022-08-03T12:44:32.358Z,2.78
2022-08-03T12:47:03.059Z,1.70
2022-08-03T12:49:46.303Z,1.38
2022-08-03T12:52:15.061Z,1.95
2022-08-03T12:54:43.839Z,1.15
2022-08-03T12:57:15.820Z,2.17
2022-08-03T12:59:52.741Z,2.00
2022-08-03T13:02:24.260Z,2.00
2022-08-03T13:04:54.642Z,1.48
2022-08-03T13:07:23.797Z,1.77
2022-08-03T13:09:54.036Z,1.90
2022-08-03T13:12:23.860Z,3.80
2022-08-03T13:14:53.469Z,2.45
2022-08-03T13:17:23.153Z,1.52
2022-08-03T13:19:52.289Z,1.50
2022-08-03T13:22:22.518Z,1.45
2022-08-03T13:24:52.260Z,1.65
2022-08-03T13:28:09.863Z,1.70
2022-08-03T13:30:09.994Z,5.55
2022-08-03T13:32:39.527Z,1.73
2022-08-03T13:35:08.808Z,1.88
2022-08-03T13:37:37.255Z,1.92
2022-08-03T13:40:07.608Z,2.03
2022-08-03T13:42:39.846Z,1.52
2022-08-03T13:45:09.288Z,1.88
2022-08-03T13:47:37.894Z,1.67
2022-08-03T13:50:08.089Z,3.65
2022-08-03T13:52:37.613Z,2.10
2022-08-03T13:55:07.882Z,2.05
2022-08-03T13:58:11.777Z,1.75
2022-08-03T14:00:28.485Z,1.40
2022-08-03T14:03:05.039Z,1.42
2022-08-03T14:05:35.738Z,1.73
2022-08-03T14:08:05.677Z,1.05
2022-08-03T14:10:36.037Z,1.23
2022-08-03T14:13:04.379Z,3.35
2022-08-03T14:15:37.790Z,1.27
2022-08-03T14:18:07.176Z,1.13
2022-08-03T14:20:50.268Z,1.27
2022-08-03T14:23:22.520Z,0.95
2022-08-03T14:25:52.540Z,0.77
2022-08-03T14:28:23.632Z,1.17
2022-08-03T14:30:52.799Z,0.63
2022-08-03T14:33:21.065Z,1.02
2022-08-03T14:35:50.720Z,1.33
2022-08-03T14:38:19.002Z,0.85
2022-08-03T14:40:47.318Z,1.02
2022-08-03T14:43:17.855Z,1.13
2022-08-03T14:45:45.949Z,1.10
2022-08-03T14:50:30.493Z,1.05
2022-08-03T14:51:03.444Z,0.75
2022-08-03T14:53:31.549Z,1.60
2022-08-03T14:55:59.682Z,0.60
2022-08-03T14:58:27.739Z,1.40
2022-08-03T15:00:56.692Z,2.42
2022-08-03T15:03:25.849Z,0.95
2022-08-03T15:05:55.740Z,1.10
2022-08-03T15:08:26.781Z,1.27
2022-08-03T15:10:55.159Z,0.65
2022-08-03T15:13:25.258Z,1.20
2022-08-03T15:15:53.580Z,1.65
2022-08-03T15:18:21.606Z,0.47
2022-08-03T15:20:50.794Z,1.38
2022-08-03T15:23:19.867Z,0.70
2022-08-03T15:26:03.722Z,0.43
2022-08-03T15:28:37.791Z,0.80
2022-08-03T15:31:06.996Z,1.48
2022-08-03T15:33:35.226Z,0.73
2022-08-03T15:36:04.097Z,0.85
2022-08-03T15:38:32.201Z,0.95
2022-08-03T15:41:01.798Z,1.20
2022-08-03T15:43:29.872Z,1.00
2022-08-03T15:46:27.611Z,0.73
2022-08-03T15:48:46.823Z,1.20
2022-08-03T15:51:15.086Z,1.75
2022-08-03T15:53:43.281Z,1.10
2022-08-03T15:56:16.812Z,1.05
2022-08-03T15:59:04.480Z,0.65
2022-08-03T16:01:35.155Z,1.17
2022-08-03T16:04:03.311Z,1.25
2022-08-03T16:06:35.794Z,0.50
2022-08-03T16:09:05.780Z,0.57
2022-08-03T16:11:54.271Z,1.55
2022-08-03T16:14:32.191Z,1.00
2022-08-03T16:17:04.545Z,0.77
2022-08-03T16:19:32.642Z,0.80
2022-08-03T16:22:01.538Z,0.63
2022-08-03T16:24:31.994Z,2.15
2022-08-03T16:27:01.693Z,0.68
2022-08-03T16:29:29.896Z,0.85
2022-08-03T16:31:58.062Z,1.25
2022-08-03T16:34:26.217Z,1.10
2022-08-03T16:36:55.369Z,0.82
2022-08-03T16:39:23.485Z,0.77
2022-08-03T16:41:53.910Z,1.50
2022-08-03T16:44:31.839Z,1.98
2022-08-03T16:47:00.465Z,0.80
2022-08-03T16:49:54.187Z,0.95
2022-08-03T16:52:17.862Z,1.23
2022-08-03T16:54:52.860Z,1.13
2022-08-03T16:57:55.815Z,1.05
2022-08-03T17:00:33.279Z,0.63
2022-08-03T17:03:04.112Z,0.60
2022-08-03T17:05:43.735Z,0.80
2022-08-03T17:08:15.449Z,2.03
2022-08-03T17:10:45.294Z,1.33
2022-08-03T17:13:21.503Z,1.05
2022-08-03T17:15:57.686Z,1.35
2022-08-03T17:18:29.726Z,0.95
2022-08-03T17:21:00.281Z,1.17
2022-08-03T17:23:39.619Z,0.82
2022-08-03T17:26:20.833Z,0.70
2022-08-03T17:28:56.461Z,0.95
2022-08-03T17:31:31.685Z,0.63
2022-08-03T17:34:04.477Z,0.80
2022-08-03T17:37:02.849Z,1.50
2022-08-03T17:39:48.369Z,1.35
2022-08-03T17:42:30.183Z,1.15
2022-08-03T17:45:02.330Z,1.30
2022-08-03T17:47:43.183Z,1.23
2022-08-03T17:50:24.127Z,1.10
2022-08-03T17:53:07.873Z,0.80
2022-08-03T17:58:52.598Z,2.35
2022-08-03T18:01:58.323Z,1.13
2022-08-03T18:04:34.842Z,2.30
2022-08-03T18:07:11.693Z,1.27
2022-08-03T18:12:46.291Z,0.93
2022-08-03T18:15:26.248Z,1.67
2022-08-03T18:18:00.885Z,1.23
2022-08-03T18:20:41.061Z,1.33
2022-08-03T18:23:20.473Z,1.52
2022-08-03T18:25:58.196Z,2.05
2022-08-03T18:28:28.760Z,1.58
2022-08-03T18:30:57.561Z,1.55
2022-08-03T18:34:18.020Z,1.15
2022-08-03T18:36:21.944Z,1.27
2022-08-03T18:38:59.965Z,1.67
2022-08-03T18:41:32.356Z,0.95
2022-08-03T18:44:07.879Z,2.38
2022-08-03T18:49:17.030Z,1.50
2022-08-03T18:51:47.612Z,1.63
2022-08-03T18:54:51.733Z,0.98
2022-08-03T18:57:13.963Z,1.73
2022-08-03T18:59:53.454Z,1.27
2022-08-03T19:02:29.703Z,1.42
2022-08-03T19:05:07.489Z,2.13
2022-08-03T19:07:39.026Z,2.17
2022-08-03T19:10:10.900Z,1.67
2022-08-03T19:12:51.510Z,1.30
2022-08-03T19:15:36.096Z,2.42
2022-08-03T19:18:10.737Z,2.03
2022-08-03T19:20:39.278Z,1.75
2022-08-03T19:23:11.216Z,2.22
2022-08-03T19:25:40.634Z,1.52
2022-08-03T19:28:10.346Z,2.38
2022-08-03T19:30:40.704Z,2.05
2022-08-03T19:33:16.001Z,1.48
2022-08-03T19:35:55.514Z,4.97
2022-08-03T19:38:28.910Z,2.40
2022-08-03T19:41:00.156Z,1.98
2022-08-03T19:43:49.296Z,2.03
2022-08-03T19:46:30.618Z,6.22
2022-08-03T19:49:04.073Z,3.40
2022-08-03T19:52:00.577Z,3.17
2022-08-03T19:54:29.435Z,5.93
2022-08-03T19:56:59.856Z,5.03
2022-08-03T19:59:33.584Z,6.47
2022-08-03T20:02:01.640Z,4.55
2022-08-03T20:04:32.146Z,6.22
2022-08-03T20:07:01.037Z,3.38
2022-08-03T20:09:33.568Z,4.25
2022-08-03T20:12:01.723Z,4.50
2022-08-03T20:14:30.903Z,3.22
2022-08-03T20:17:00.094Z,2.30
2022-08-03T20:19:32.604Z,3.28
2022-08-03T20:22:03.401Z,3.78
2022-08-03T20:24:35.912Z,3.08
2022-08-03T20:27:07.816Z,2.53
2022-08-03T20:30:04.901Z,2.03
2022-08-03T20:32:29.273Z,3.17
2022-08-03T20:34:58.666Z,2.50
2022-08-03T20:37:26.901Z,1.67
2022-08-03T20:39:59.938Z,2.50
2022-08-03T20:42:27.977Z,2.63
2022-08-03T20:45:04.474Z,2.13
2022-08-03T20:47:36.001Z,2.47
2022-08-03T20:50:07.503Z,1.92
2022-08-03T20:52:49.503Z,2.35
2022-08-03T20:55:20.175Z,3.47
2022-08-03T20:58:08.272Z,2.08
2022-08-03T21:00:36.394Z,2.08
2022-08-03T21:03:06.778Z,2.80
2022-08-03T21:05:51.315Z,2.85
2022-08-03T21:08:22.570Z,2.15
2022-08-03T21:10:54.457Z,2.05
2022-08-03T21:12:55.766Z,1.40
2022-08-03T21:12:57.104Z,1.15
2022-08-03T21:13:29.917Z,4.47
2022-08-03T21:16:07.080Z,2.05
2022-08-03T21:18:46.039Z,3.20
2022-08-03T21:21:17.274Z,2.53
2022-08-03T21:23:49.152Z,3.20
2022-08-03T21:26:21.029Z,2.92
2022-08-03T21:28:50.373Z,3.17
2022-08-03T21:31:24.331Z,2.97
2022-08-03T21:33:56.505Z,2.10
2022-08-03T21:36:25.549Z,3.63
2022-08-03T21:38:56.297Z,4.82
2022-08-03T21:41:27.282Z,3.30
2022-08-03T21:43:55.484Z,3.35
2022-08-03T21:46:24.783Z,2.38
2022-08-03T21:48:56.783Z,3.88
2022-08-03T21:51:45.491Z,4.28
2022-08-03T21:54:14.832Z,2.00
2022-08-03T21:56:48.286Z,2.88
2022-08-03T21:59:18.676Z,2.40
2022-08-03T22:01:51.513Z,2.85
2022-08-03T22:04:50.739Z,2.30
2022-08-03T22:07:12.636Z,2.80
2022-08-03T22:09:50.893Z,3.35
2022-08-03T22:12:23.992Z,3.38
2022-08-03T22:15:00.376Z,1.90
2022-08-03T22:17:53.611Z,3.72
2022-08-03T22:20:22.046Z,2.83
2022-08-03T22:22:55.887Z,2.80
2022-08-03T22:25:28.795Z,3.45
2022-08-03T22:28:00.240Z,2.78
2022-08-03T22:30:28.597Z,3.17
2022-08-03T22:32:57.714Z,2.80
2022-08-03T22:35:27.512Z,4.22
2022-08-03T22:37:58.405Z,2.78
2022-08-03T22:40:28.660Z,3.00
2022-08-03T22:42:59.288Z,3.55
2022-08-03T22:46:07.156Z,2.38
2022-08-03T22:48:18.195Z,2.67
2022-08-03T22:50:47.371Z,3.15
2022-08-03T22:53:19.508Z,2.83
2022-08-03T22:55:49.130Z,3.00
2022-08-03T22:58:20.760Z,4.40
2022-08-03T23:00:54.195Z,3.25
2022-08-03T23:03:25.383Z,3.22
2022-08-03T23:06:14.176Z,3.75
2022-08-03T23:08:45.535Z,2.85
2022-08-03T23:11:16.421Z,3.15
2022-08-03T23:13:48.054Z,2.63
2022-08-03T23:16:27.881Z,3.03
2022-08-03T23:18:59.323Z,3.35
2022-08-03T23:22:00.218Z,3.00
2022-08-03T23:24:29.152Z,4.32
2022-08-03T23:26:59.095Z,5.97
2022-08-03T23:29:31.435Z,5.20
2022-08-03T23:31:59.710Z,2.95
2022-08-03T23:34:46.604Z,3.53
2022-08-03T23:37:15.801Z,3.60
2022-08-03T23:39:47.527Z,3.30
2022-08-03T23:42:18.647Z,3.90
2022-08-03T23:44:48.635Z,7.07
2022-08-03T23:47:16.632Z,6.90
2022-08-03T23:49:45.214Z,6.57
2022-08-03T23:52:28.938Z,7.18
2022-08-03T23:55:12.165Z,4.68
2022-08-03T23:57:56.919Z,5.03
